Time,TemperatureF,DewpointF,PressureIn,WindDirection,WindDirectionDegrees,WindSpeedMPH,WindSpeedGustMPH,Humidity,HourlyPrecipIn,Conditions,Clouds,dailyrainin,SoftwareType,DateUTC
2013-08-08 00:04:00,72.8,69.7,30.05,SW,229,0.0,0.0,90,0.00,,SKC,0.00,VWS V14.01,2013-08-08 04:04:00,
2013-08-08 00:06:00,72.8,69.7,30.05,SW,229,0.0,0.0,90,0.00,,SKC,0.00,VWS V14.01,2013-08-08 04:06:00,
2013-08-08 00:08:00,72.7,69.9,30.05,SW,229,0.0,0.0,91,0.00,,SKC,0.00,VWS V14.01,2013-08-08 04:08:00,
2013-08-08 00:14:00,72.6,69.8,30.05,SW,229,0.0,0.0,91,0.00,,SKC,0.00,VWS V14.01,2013-08-08 04:14:00,
2013-08-08 00:20:00,72.4,69.6,30.04,SW,235,0.0,0.0,91,0.00,,SKC,0.00,VWS V14.01,2013-08-08 04:20:00,
2013-08-08 00:26:00,72.3,69.8,30.05,SW,227,0.0,0.0,92,0.00,,SKC,0.00,VWS V14.01,2013-08-08 04:26:00,
2013-08-08 00:30:00,72.2,69.8,30.04,SW,228,0.0,0.0,92,0.00,,SKC,0.00,VWS V14.01,2013-08-08 04:30:00,
2013-08-08 00:36:00,72.2,69.8,30.04,SSW,198,0.0,0.0,92,0.00,,SKC,0.00,VWS V14.01,2013-08-08 04:36:00,
2013-08-08 00:41:00,72.2,69.8,30.04,SW,228,1.0,0.0,92,0.00,,SKC,0.00,VWS V14.01,2013-08-08 04:41:00,
2013-08-08 00:46:00,72.3,69.8,30.05,SW,224,0.0,0.0,92,0.00,,SKC,0.00,VWS V14.01,2013-08-08 04:46:00,
2013-08-08 00:51:00,72.3,69.8,30.05,SW,225,0.0,0.0,92,0.00,,SKC,0.00,VWS V14.01,2013-08-08 04:51:00,
2013-08-08 00:56:00,72.3,69.8,30.05,SW,225,0.0,0.0,92,0.00,,SKC,0.00,VWS V14.01,2013-08-08 04:56:00,
2013-08-08 01:02:00,72.3,69.8,30.05,SW,229,0.0,0.0,92,0.00,,SKC,0.00,VWS V14.01,2013-08-08 05:02:00,
2013-08-08 01:08:00,72.4,69.9,30.05,SSW,203,0.0,0.0,92,0.00,,SKC,0.00,VWS V14.01,2013-08-08 05:08:00,
2013-08-08 01:14:00,72.6,70.2,30.05,SSW,205,0.0,0.0,92,0.00,,SKC,0.00,VWS V14.01,2013-08-08 05:14:00,
2013-08-08 01:20:00,72.6,70.2,30.05,SW,229,0.0,0.0,92,0.00,,SKC,0.00,VWS V14.01,2013-08-08 05:20:00,
2013-08-08 01:26:00,72.6,70.2,30.04,SW,219,0.0,0.0,92,0.00,,SKC,0.00,VWS V14.01,2013-08-08 05:26:00,
2013-08-08 01:31:00,72.6,70.2,30.04,SW,224,1.0,0.0,92,0.00,,SKC,0.00,VWS V14.01,2013-08-08 05:31:00,
2013-08-08 01:36:00,72.5,70.1,30.04,SW,221,1.0,0.0,92,0.00,,SKC,0.00,VWS V14.01,2013-08-08 05:36:00,
2013-08-08 01:41:00,72.5,70.1,30.04,SSW,203,1.0,0.0,92,0.00,,SKC,0.00,VWS V14.01,2013-08-08 05:41:00,
2013-08-08 01:46:00,72.6,70.2,30.03,South,172,0.0,0.0,92,0.00,,SKC,0.00,VWS V14.01,2013-08-08 05:46:00,
2013-08-08 01:51:00,72.6,70.2,30.03,SW,231,0.0,0.0,92,0.00,,SKC,0.00,VWS V14.01,2013-08-08 05:51:00,
2013-08-08 01:56:00,72.6,70.2,30.03,SSW,200,2.0,0.0,92,0.00,,SKC,0.00,VWS V14.01,2013-08-08 05:56:00,
2013-08-08 02:01:00,72.6,70.2,30.03,SW,231,0.0,0.0,92,0.00,,SKC,0.00,VWS V14.01,2013-08-08 06:01:00,
2013-08-08 02:06:00,72.7,70.2,30.03,SSW,210,0.0,0.0,92,0.00,,SKC,0.00,VWS V14.01,2013-08-08 06:06:00,
2013-08-08 02:11:00,72.7,70.2,30.03,SSW,210,0.0,0.0,92,0.00,,SKC,0.00,VWS V14.01,2013-08-08 06:11:00,
2013-08-08 02:16:00,72.7,70.2,30.03,SSW,207,0.0,0.0,92,0.00,,SKC,0.00,VWS V14.01,2013-08-08 06:16:00,
2013-08-08 02:21:00,72.7,70.2,30.03,SW,235,1.0,0.0,92,0.00,,SKC,0.00,VWS V14.01,2013-08-08 06:21:00,
2013-08-08 02:26:00,72.7,70.2,30.03,SW,219,2.0,0.0,92,0.00,,SKC,0.00,VWS V14.01,2013-08-08 06:26:00,
2013-08-08 02:31:00,72.7,70.2,30.03,SSW,198,0.0,0.0,92,0.00,,SKC,0.00,VWS V14.01,2013-08-08 06:31:00,
2013-08-08 02:36:00,72.7,70.2,30.04,SSW,196,2.0,0.0,92,0.00,,SKC,0.00,VWS V14.01,2013-08-08 06:36:00,
2013-08-08 02:41:00,72.7,70.2,30.03,SW,215,1.0,0.0,92,0.00,,SKC,0.00,VWS V14.01,2013-08-08 06:41:00,
2013-08-08 02:46:00,72.7,70.6,30.04,SW,221,2.0,0.0,93,0.00,,SKC,0.00,VWS V14.01,2013-08-08 06:46:00,
2013-08-08 02:51:00,72.6,70.5,30.04,WSW,238,1.0,0.0,93,0.00,,SKC,0.00,VWS V14.01,2013-08-08 06:51:00,
2013-08-08 02:56:00,72.6,70.5,30.04,WSW,241,1.0,0.0,93,0.00,,SKC,0.00,VWS V14.01,2013-08-08 06:56:00,
2013-08-08 03:01:00,72.5,70.4,30.04,SW,230,1.0,0.0,93,0.00,,SKC,0.00,VWS V14.01,2013-08-08 07:01:00,
2013-08-08 03:07:00,72.4,70.3,30.04,SW,235,1.0,0.0,93,0.00,,SKC,0.00,VWS V14.01,2013-08-08 07:07:00,
2013-08-08 03:13:00,72.4,70.3,30.03,SW,221,0.0,0.0,93,0.00,,SKC,0.00,VWS V14.01,2013-08-08 07:13:00,
2013-08-08 03:19:00,72.2,70.1,30.03,South,191,0.0,0.0,93,0.00,,SKC,0.00,VWS V14.01,2013-08-08 07:19:00,
2013-08-08 03:25:00,72.2,70.4,30.03,SW,218,0.0,0.0,94,0.00,,SKC,0.00,VWS V14.01,2013-08-08 07:25:00,
2013-08-08 03:31:00,72.1,70.3,30.03,SW,228,2.0,0.0,94,0.00,,SKC,0.00,VWS V14.01,2013-08-08 07:31:00,
2013-08-08 03:36:00,72.1,70.3,30.03,SW,222,0.0,0.0,94,0.00,,SKC,0.00,VWS V14.01,2013-08-08 07:36:00,
2013-08-08 03:41:00,72.0,70.2,30.03,SW,214,1.0,0.0,94,0.00,,SKC,0.00,VWS V14.01,2013-08-08 07:41:00,
2013-08-08 03:46:00,71.9,70.1,30.03,SSW,203,0.0,0.0,94,0.00,,SKC,0.00,VWS V14.01,2013-08-08 07:46:00,
2013-08-08 03:51:00,71.8,70.0,30.04,SW,222,0.0,0.0,94,0.00,,SKC,0.00,VWS V14.01,2013-08-08 07:51:00,
2013-08-08 03:57:00,71.8,70.0,30.04,SSE,166,0.0,0.0,94,0.00,,SKC,0.00,VWS V14.01,2013-08-08 07:57:00,
2013-08-08 04:03:00,71.7,70.2,30.04,SW,229,0.0,0.0,95,0.00,,SKC,0.00,VWS V14.01,2013-08-08 08:03:00,
2013-08-08 04:09:00,71.7,70.2,30.04,SW,219,0.0,0.0,95,0.00,,SKC,0.00,VWS V14.01,2013-08-08 08:09:00,
2013-08-08 04:15:00,71.7,70.2,30.04,SW,221,0.0,0.0,95,0.00,,SKC,0.00,VWS V14.01,2013-08-08 08:15:00,
2013-08-08 04:21:00,71.7,70.2,30.04,SW,221,0.0,0.0,95,0.00,,SKC,0.00,VWS V14.01,2013-08-08 08:21:00,
2013-08-08 04:26:00,71.7,70.2,30.04,SSW,211,0.0,0.0,95,0.00,,SKC,0.00,VWS V14.01,2013-08-08 08:26:00,
2013-08-08 04:31:00,71.7,70.2,30.04,SSW,212,0.0,0.0,95,0.00,,SKC,0.00,VWS V14.01,2013-08-08 08:31:00,
2013-08-08 04:37:00,71.8,70.3,30.04,SSW,208,0.0,0.0,95,0.00,,SKC,0.00,VWS V14.01,2013-08-08 08:37:00,
2013-08-08 04:43:00,71.8,70.3,30.04,SSW,208,0.0,0.0,95,0.00,,SKC,0.00,VWS V14.01,2013-08-08 08:43:00,
2013-08-08 04:49:00,71.8,70.3,30.04,ESE,113,0.0,0.0,95,0.00,,SKC,0.00,VWS V14.01,2013-08-08 08:49:00,
2013-08-08 04:55:00,71.8,70.3,30.04,SE,136,0.0,0.0,95,0.00,,SKC,0.00,VWS V14.01,2013-08-08 08:55:00,
2013-08-08 05:01:00,71.8,70.3,30.04,SW,222,1.0,0.0,95,0.00,,SKC,0.00,VWS V14.01,2013-08-08 09:01:00,
2013-08-08 05:07:00,71.8,70.3,30.04,SW,222,1.0,0.0,95,0.00,,SKC,0.00,VWS V14.01,2013-08-08 09:07:00,
2013-08-08 05:13:00,71.8,70.3,30.04,SSE,153,0.0,0.0,95,0.00,,SKC,0.00,VWS V14.01,2013-08-08 09:13:00,
2013-08-08 05:19:00,71.8,70.3,30.04,SW,221,0.0,0.0,95,0.00,,SKC,0.00,VWS V14.01,2013-08-08 09:19:00,
2013-08-08 05:25:00,71.8,70.3,30.04,SSW,204,0.0,0.0,95,0.00,,SKC,0.00,VWS V14.01,2013-08-08 09:25:00,
2013-08-08 05:31:00,71.8,70.3,30.04,WSW,242,0.0,0.0,95,0.00,,SKC,0.00,VWS V14.01,2013-08-08 09:31:00,
2013-08-08 05:37:00,71.8,70.3,30.04,SW,235,0.0,0.0,95,0.00,,SKC,0.00,VWS V14.01,2013-08-08 09:37:00,
2013-08-08 05:43:00,71.8,70.3,30.04,SW,222,1.0,0.0,95,0.00,,SKC,0.00,VWS V14.01,2013-08-08 09:43:00,
2013-08-08 05:49:00,71.8,70.3,30.04,SSW,207,1.0,0.0,95,0.00,,SKC,0.00,VWS V14.01,2013-08-08 09:49:00,
2013-08-08 05:55:00,71.8,70.3,30.04,SW,221,1.0,0.0,95,0.00,,SKC,0.00,VWS V14.01,2013-08-08 09:55:00,
2013-08-08 06:01:00,71.8,70.3,30.04,SW,221,2.0,0.0,95,0.00,,SKC,0.00,VWS V14.01,2013-08-08 10:01:00,
2013-08-08 06:07:00,71.8,70.3,30.04,SSW,203,2.0,0.0,95,0.00,,SKC,0.00,VWS V14.01,2013-08-08 10:07:00,
2013-08-08 06:13:00,71.8,70.3,30.04,SSW,193,5.0,0.0,95,0.00,,SKC,0.00,VWS V14.01,2013-08-08 10:13:00,
2013-08-08 06:19:00,71.8,70.3,30.04,SW,226,0.0,0.0,95,0.00,,SKC,0.00,VWS V14.01,2013-08-08 10:19:00,
2013-08-08 06:25:00,71.8,70.3,30.04,SW,215,2.0,0.0,95,0.00,,SKC,0.00,VWS V14.01,2013-08-08 10:25:00,
2013-08-08 06:31:00,71.8,70.3,30.04,South,188,2.0,0.0,95,0.00,,SKC,0.00,VWS V14.01,2013-08-08 10:31:00,
2013-08-08 06:36:00,71.8,70.3,30.04,SW,217,1.0,0.0,95,0.00,,SKC,0.00,VWS V14.01,2013-08-08 10:36:00,
2013-08-08 06:41:00,71.7,70.2,30.04,SE,146,2.0,0.0,95,0.00,,SKC,0.00,VWS V14.01,2013-08-08 10:41:00,
2013-08-08 06:46:00,71.6,70.1,30.05,SSW,212,2.0,0.0,95,0.00,,SKC,0.00,VWS V14.01,2013-08-08 10:46:00,
2013-08-08 06:52:00,71.4,69.9,30.05,SSW,211,0.0,0.0,95,0.00,,SKC,0.00,VWS V14.01,2013-08-08 10:52:00,
2013-08-08 06:58:00,71.3,69.8,30.05,SW,218,2.0,0.0,95,0.00,,SKC,0.00,VWS V14.01,2013-08-08 10:58:00,
2013-08-08 07:04:00,71.1,69.6,30.04,South,183,3.0,0.0,95,0.00,,SKC,0.00,VWS V14.01,2013-08-08 11:04:00,
2013-08-08 07:10:00,71.0,69.5,30.05,SSW,195,3.0,0.0,95,0.00,,SKC,0.00,VWS V14.01,2013-08-08 11:10:00,
2013-08-08 07:16:00,70.9,69.7,30.05,SSW,212,4.0,0.0,96,0.00,,SKC,0.00,VWS V14.01,2013-08-08 11:16:00,
2013-08-08 07:21:00,70.8,69.6,30.05,SSE,165,2.0,0.0,96,0.00,,SKC,0.00,VWS V14.01,2013-08-08 11:21:00,
2013-08-08 07:22:00,70.8,69.6,30.05,SW,222,1.0,0.0,96,0.00,,SKC,0.00,VWS V14.01,2013-08-08 11:22:00,
2013-08-08 07:28:00,70.7,69.5,30.05,SW,214,1.0,0.0,96,0.00,,SKC,0.00,VWS V14.01,2013-08-08 11:28:00,
2013-08-08 07:34:00,70.7,69.5,30.05,SE,145,1.0,0.0,96,0.00,,SKC,0.00,VWS V14.01,2013-08-08 11:34:00,
2013-08-08 07:40:00,70.8,69.6,30.05,SW,226,1.0,0.0,96,0.00,,SKC,0.00,VWS V14.01,2013-08-08 11:40:00,
2013-08-08 07:46:00,70.8,69.6,30.05,SSE,150,0.0,0.0,96,0.00,,SKC,0.00,VWS V14.01,2013-08-08 11:46:00,
2013-08-08 07:51:00,70.8,69.6,30.05,SSW,195,1.0,0.0,96,0.00,,SKC,0.00,VWS V14.01,2013-08-08 11:51:00,
2013-08-08 07:56:00,70.8,69.6,30.05,SSW,202,0.0,0.0,96,0.00,,SKC,0.00,VWS V14.01,2013-08-08 11:56:00,
2013-08-08 08:01:00,70.9,69.7,30.05,SW,226,0.0,0.0,96,0.00,,SKC,0.00,VWS V14.01,2013-08-08 12:01:00,
2013-08-08 08:06:00,70.9,69.7,30.05,SSW,207,1.0,0.0,96,0.00,,SKC,0.00,VWS V14.01,2013-08-08 12:06:00,
2013-08-08 08:12:00,70.9,69.7,30.05,WSW,253,1.0,0.0,96,0.00,,SKC,0.00,VWS V14.01,2013-08-08 12:12:00,
2013-08-08 08:18:00,71.0,69.8,30.05,SSE,163,0.0,0.0,96,0.00,,SKC,0.00,VWS V14.01,2013-08-08 12:18:00,
2013-08-08 08:24:00,71.0,69.8,30.06,SSW,200,2.0,0.0,96,0.00,,SKC,0.00,VWS V14.01,2013-08-08 12:24:00,
2013-08-08 08:30:00,71.1,69.9,30.06,SW,225,0.0,0.0,96,0.00,,SKC,0.00,VWS V14.01,2013-08-08 12:30:00,
2013-08-08 08:36:00,71.2,70.0,30.06,WSW,245,1.0,0.0,96,0.00,,SKC,0.00,VWS V14.01,2013-08-08 12:36:00,
2013-08-08 08:41:00,71.2,70.0,30.06,SSW,204,1.0,0.0,96,0.00,,SKC,0.00,VWS V14.01,2013-08-08 12:41:00,
2013-08-08 08:46:00,71.3,70.1,30.06,WSW,240,1.0,0.0,96,0.00,,SKC,0.00,VWS V14.01,2013-08-08 12:46:00,
2013-08-08 08:51:00,71.4,70.2,30.06,SE,127,0.0,0.0,96,0.00,,SKC,0.00,VWS V14.01,2013-08-08 12:51:00,
2013-08-08 08:56:00,71.4,70.2,30.06,SW,226,0.0,0.0,96,0.00,,SKC,0.00,VWS V14.01,2013-08-08 12:56:00,
2013-08-08 09:01:00,71.5,70.3,30.06,SSE,165,1.0,0.0,96,0.00,,SKC,0.00,VWS V14.01,2013-08-08 13:01:00,
2013-08-08 09:06:00,71.6,70.4,30.06,SW,221,1.0,0.0,96,0.00,,SKC,0.00,VWS V14.01,2013-08-08 13:06:00,
2013-08-08 09:11:00,71.6,70.4,30.06,SW,217,1.0,0.0,96,0.00,,SKC,0.00,VWS V14.01,2013-08-08 13:11:00,
2013-08-08 09:16:00,71.8,70.6,30.06,SSE,160,1.0,0.0,96,0.00,,SKC,0.00,VWS V14.01,2013-08-08 13:16:00,
2013-08-08 09:21:00,71.8,70.3,30.07,SSW,207,3.0,0.0,95,0.00,,SKC,0.00,VWS V14.01,2013-08-08 13:21:00,
2013-08-08 09:26:00,71.9,70.4,30.07,NE,56,0.0,0.0,95,0.00,,SKC,0.00,VWS V14.01,2013-08-08 13:26:00,
2013-08-08 09:31:00,72.1,70.6,30.06,West,269,0.0,0.0,95,0.00,,SKC,0.00,VWS V14.01,2013-08-08 13:31:00,
2013-08-08 09:36:00,72.2,70.7,30.07,SSW,193,0.0,0.0,95,0.00,,SKC,0.00,VWS V14.01,2013-08-08 13:36:00,
2013-08-08 09:41:00,72.3,70.8,30.07,SE,140,0.0,0.0,95,0.00,,SKC,0.00,VWS V14.01,2013-08-08 13:41:00,
2013-08-08 09:46:00,72.6,71.1,30.06,ENE,65,0.0,0.0,95,0.00,,SKC,0.00,VWS V14.01,2013-08-08 13:46:00,
2013-08-08 09:51:00,72.7,71.2,30.06,SW,226,1.0,0.0,95,0.00,,SKC,0.00,VWS V14.01,2013-08-08 13:51:00,
2013-08-08 09:56:00,73.2,71.7,30.06,SSW,193,1.0,0.0,95,0.00,,SKC,0.00,VWS V14.01,2013-08-08 13:56:00,
2013-08-08 10:01:00,74.0,72.5,30.06,SW,219,2.0,0.0,95,0.00,,SKC,0.00,VWS V14.01,2013-08-08 14:01:00,
2013-08-08 10:06:00,74.5,72.3,30.06,SSW,200,3.0,0.0,93,0.00,,SKC,0.00,VWS V14.01,2013-08-08 14:06:00,
2013-08-08 10:11:00,74.7,72.2,30.06,SSE,160,2.0,0.0,92,0.00,,SKC,0.00,VWS V14.01,2013-08-08 14:11:00,
2013-08-08 10:16:00,74.9,72.4,30.06,WSW,252,2.0,0.0,92,0.00,,SKC,0.00,VWS V14.01,2013-08-08 14:16:00,
2013-08-08 10:21:00,75.1,72.6,30.07,WSW,240,6.0,0.0,92,0.00,,SKC,0.00,VWS V14.01,2013-08-08 14:21:00,
2013-08-08 10:26:00,75.4,72.6,30.07,SSW,203,4.0,0.0,91,0.00,,SKC,0.00,VWS V14.01,2013-08-08 14:26:00,
2013-08-08 10:31:00,75.6,72.8,30.06,WSW,238,4.0,0.0,91,0.00,,SKC,0.00,VWS V14.01,2013-08-08 14:31:00,
2013-08-08 10:36:00,76.2,73.4,30.07,SW,231,0.0,0.0,91,0.00,,SKC,0.00,VWS V14.01,2013-08-08 14:36:00,
2013-08-08 10:41:00,76.6,73.1,30.07,SSW,203,4.0,0.0,89,0.00,,SKC,0.00,VWS V14.01,2013-08-08 14:41:00,
2013-08-08 10:46:00,76.9,73.4,30.07,East,92,0.0,0.0,89,0.00,,SKC,0.00,VWS V14.01,2013-08-08 14:46:00,
2013-08-08 10:51:00,77.4,73.6,30.07,ESE,120,7.0,0.0,88,0.00,,SKC,0.00,VWS V14.01,2013-08-08 14:51:00,
2013-08-08 10:56:00,77.7,73.9,30.07,SW,229,6.0,0.0,88,0.00,,SKC,0.00,VWS V14.01,2013-08-08 14:56:00,
2013-08-08 11:01:00,77.9,73.4,30.07,SW,221,6.0,0.0,86,0.00,,SKC,0.00,VWS V14.01,2013-08-08 15:01:00,
2013-08-08 11:06:00,77.9,73.4,30.07,ENE,67,2.0,0.0,86,0.00,,SKC,0.00,VWS V14.01,2013-08-08 15:06:00,
2013-08-08 11:11:00,78.3,74.1,30.07,WSW,241,5.0,0.0,87,0.00,,SKC,0.00,VWS V14.01,2013-08-08 15:11:00,
2013-08-08 11:16:00,78.5,73.6,30.07,SSW,201,0.0,0.0,85,0.00,,SKC,0.00,VWS V14.01,2013-08-08 15:16:00,
2013-08-08 11:21:00,78.7,73.8,30.07,SSW,210,0.0,0.0,85,0.00,,SKC,0.00,VWS V14.01,2013-08-08 15:21:00,
2013-08-08 11:26:00,79.0,73.8,30.07,SSW,194,6.0,0.0,84,0.00,,SKC,0.00,VWS V14.01,2013-08-08 15:26:00,
2013-08-08 11:31:00,78.9,73.7,30.07,SSE,155,0.0,0.0,84,0.00,,SKC,0.00,VWS V14.01,2013-08-08 15:31:00,
2013-08-08 11:36:00,78.7,73.5,30.07,SSW,204,3.0,0.0,84,0.00,,SKC,0.00,VWS V14.01,2013-08-08 15:36:00,
2013-08-08 11:41:00,78.3,73.1,30.07,SSW,201,0.0,0.0,84,0.00,,SKC,0.00,VWS V14.01,2013-08-08 15:41:00,
2013-08-08 11:46:00,77.9,73.0,30.07,SW,221,2.0,0.0,85,0.00,,SKC,0.00,VWS V14.01,2013-08-08 15:46:00,
2013-08-08 11:51:00,77.7,73.2,30.07,SW,222,1.0,0.0,86,0.00,,SKC,0.00,VWS V14.01,2013-08-08 15:51:00,
2013-08-08 11:56:00,77.4,73.2,30.07,South,176,1.0,0.0,87,0.00,,SKC,0.00,VWS V14.01,2013-08-08 15:56:00,
2013-08-08 12:04:00,77.2,73.4,30.08,SSW,194,1.0,0.0,88,0.00,,SKC,0.00,VWS V14.01,2013-08-08 16:04:00,
2013-08-08 12:10:00,77.2,73.0,30.07,South,179,3.0,0.0,87,0.00,,SKC,0.00,VWS V14.01,2013-08-08 16:10:00,
2013-08-08 12:16:00,77.3,73.1,30.07,SSW,212,3.0,0.0,87,0.00,,SKC,0.00,VWS V14.01,2013-08-08 16:16:00,
2013-08-08 12:21:00,77.4,73.2,30.07,SSW,198,2.0,0.0,87,0.00,,SKC,0.00,VWS V14.01,2013-08-08 16:21:00,
2013-08-08 12:26:00,77.4,73.2,30.07,ESE,119,2.0,0.0,87,0.00,,SKC,0.00,VWS V14.01,2013-08-08 16:26:00,
2013-08-08 12:32:00,77.5,73.3,30.07,SW,226,1.0,0.0,87,0.00,,SKC,0.00,VWS V14.01,2013-08-08 16:32:00,
2013-08-08 12:38:00,77.6,73.4,30.07,SSW,207,0.0,0.0,87,0.00,,SKC,0.00,VWS V14.01,2013-08-08 16:38:00,
2013-08-08 12:44:00,77.6,73.8,30.07,ESE,122,0.0,0.0,88,0.00,,SKC,0.00,VWS V14.01,2013-08-08 16:44:00,
2013-08-08 12:50:00,77.7,73.9,30.07,SW,219,0.0,0.0,88,0.00,,SKC,0.00,VWS V14.01,2013-08-08 16:50:00,
2013-08-08 12:56:00,78.3,74.5,30.07,ESE,111,2.0,0.0,88,0.00,,SKC,0.00,VWS V14.01,2013-08-08 16:56:00,
2013-08-08 13:01:00,78.8,74.6,30.07,South,184,1.0,0.0,87,0.00,,SKC,0.00,VWS V14.01,2013-08-08 17:01:00,
2013-08-08 13:06:00,79.0,74.5,30.07,West,270,2.0,0.0,86,0.00,,SKC,0.00,VWS V14.01,2013-08-08 17:06:00,
2013-08-08 13:11:00,79.4,74.5,30.07,East,95,2.0,0.0,85,0.00,,SKC,0.00,VWS V14.01,2013-08-08 17:11:00,
2013-08-08 13:16:00,79.6,74.7,30.06,South,174,5.0,0.0,85,0.00,,SKC,0.00,VWS V14.01,2013-08-08 17:16:00,
2013-08-08 13:22:00,79.8,74.9,30.06,ESE,104,1.0,0.0,85,0.00,,SKC,0.00,VWS V14.01,2013-08-08 17:22:00,
2013-08-08 13:28:00,80.0,74.7,30.06,West,265,2.0,0.0,84,0.00,,SKC,0.00,VWS V14.01,2013-08-08 17:28:00,
2013-08-08 13:34:00,80.1,74.8,30.06,SE,135,3.0,0.0,84,0.00,,SKC,0.00,VWS V14.01,2013-08-08 17:34:00,
2013-08-08 13:40:00,80.5,74.9,30.06,WSW,245,3.0,0.0,83,0.00,,SKC,0.00,VWS V14.01,2013-08-08 17:40:00,
2013-08-08 13:46:00,80.4,74.4,30.06,WSW,246,0.0,0.0,82,0.00,,SKC,0.00,VWS V14.01,2013-08-08 17:46:00,
2013-08-08 13:51:00,80.6,75.0,30.06,WSW,242,2.0,0.0,83,0.00,,SKC,0.00,VWS V14.01,2013-08-08 17:51:00,
2013-08-08 13:56:00,80.5,74.5,30.06,SSE,162,1.0,0.0,82,0.00,,SKC,0.00,VWS V14.01,2013-08-08 17:56:00,
2013-08-08 14:01:00,80.7,75.1,30.05,SW,232,3.0,0.0,83,0.00,,SKC,0.00,VWS V14.01,2013-08-08 18:01:00,
2013-08-08 14:06:00,81.1,75.4,30.05,East,82,5.0,0.0,83,0.00,,SKC,0.00,VWS V14.01,2013-08-08 18:06:00,
2013-08-08 14:11:00,81.1,75.1,30.05,WSW,240,4.0,0.0,82,0.00,,SKC,0.00,VWS V14.01,2013-08-08 18:11:00,
2013-08-08 14:16:00,81.0,74.2,30.04,NNW,347,1.0,0.0,80,0.00,,SKC,0.00,VWS V14.01,2013-08-08 18:16:00,
2013-08-08 14:21:00,80.7,74.3,30.04,SSE,159,2.0,0.0,81,0.00,,SKC,0.00,VWS V14.01,2013-08-08 18:21:00,
2013-08-08 14:26:00,80.9,74.5,30.04,East,98,2.0,0.0,81,0.00,,SKC,0.00,VWS V14.01,2013-08-08 18:26:00,
2013-08-08 14:32:00,81.0,74.6,30.04,SSW,208,5.0,0.0,81,0.00,,SKC,0.00,VWS V14.01,2013-08-08 18:32:00,
2013-08-08 14:38:00,81.7,74.9,30.04,East,96,5.0,0.0,80,0.00,,SKC,0.00,VWS V14.01,2013-08-08 18:38:00,
2013-08-08 14:44:00,82.1,74.9,30.04,ENE,78,5.0,0.0,79,0.00,,SKC,0.00,VWS V14.01,2013-08-08 18:44:00,
2013-08-08 14:50:00,82.0,74.5,30.04,SW,214,5.0,0.0,78,0.00,,SKC,0.00,VWS V14.01,2013-08-08 18:50:00,
2013-08-08 14:56:00,82.0,75.2,30.04,SW,229,7.0,0.0,80,0.00,,SKC,0.00,VWS V14.01,2013-08-08 18:56:00,
2013-08-08 15:01:00,81.8,74.7,30.04,East,94,3.0,0.0,79,0.00,,SKC,0.00,VWS V14.01,2013-08-08 19:01:00,
2013-08-08 15:07:00,81.3,75.3,30.04,SSW,205,4.0,0.0,82,0.00,,SKC,0.00,VWS V14.01,2013-08-08 19:07:00,
2013-08-08 15:13:00,81.7,75.3,30.03,WSW,257,1.0,0.0,81,0.00,,SKC,0.00,VWS V14.01,2013-08-08 19:13:00,
2013-08-08 15:19:00,82.4,75.2,30.03,NE,53,1.0,0.0,79,0.00,,SKC,0.00,VWS V14.01,2013-08-08 19:19:00,
2013-08-08 15:25:00,82.4,75.2,30.02,SSE,153,3.0,0.0,79,0.00,,SKC,0.00,VWS V14.01,2013-08-08 19:25:00,
2013-08-08 15:31:00,82.6,75.4,30.02,SSE,153,2.0,0.0,79,0.00,,SKC,0.00,VWS V14.01,2013-08-08 19:31:00,
2013-08-08 15:36:00,82.8,75.6,30.02,ESE,120,4.0,0.0,79,0.00,,SKC,0.00,VWS V14.01,2013-08-08 19:36:00,
2013-08-08 15:41:00,82.4,74.9,30.02,SSW,205,3.0,0.0,78,0.00,,SKC,0.00,VWS V14.01,2013-08-08 19:41:00,
2013-08-08 15:46:00,82.1,75.3,30.02,South,174,1.0,0.0,80,0.00,,SKC,0.00,VWS V14.01,2013-08-08 19:46:00,
2013-08-08 15:51:00,82.1,74.6,30.02,SSW,212,2.0,0.0,78,0.00,,SKC,0.00,VWS V14.01,2013-08-08 19:51:00,
2013-08-08 15:56:00,82.2,74.7,30.02,SSW,195,0.0,0.0,78,0.00,,SKC,0.00,VWS V14.01,2013-08-08 19:56:00,
2013-08-08 16:01:00,82.2,74.7,30.02,SW,236,3.0,0.0,78,0.00,,SKC,0.00,VWS V14.01,2013-08-08 20:01:00,
2013-08-08 16:06:00,82.2,74.3,30.02,South,191,2.0,0.0,77,0.00,,SKC,0.00,VWS V14.01,2013-08-08 20:06:00,
2013-08-08 16:11:00,82.5,74.6,30.02,SSW,198,3.0,0.0,77,0.00,,SKC,0.00,VWS V14.01,2013-08-08 20:11:00,
2013-08-08 16:16:00,82.8,75.2,30.01,ENE,74,2.0,0.0,78,0.00,,SKC,0.00,VWS V14.01,2013-08-08 20:16:00,
2013-08-08 16:21:00,83.2,75.6,30.01,SW,218,4.0,0.0,78,0.00,,SKC,0.00,VWS V14.01,2013-08-08 20:21:00,
2013-08-08 16:26:00,83.4,75.4,30.01,SW,231,5.0,0.0,77,0.00,,SKC,0.00,VWS V14.01,2013-08-08 20:26:00,
2013-08-08 16:31:00,82.8,75.2,30.01,WSW,240,5.0,0.0,78,0.00,,SKC,0.00,VWS V14.01,2013-08-08 20:31:00,
2013-08-08 16:36:00,82.7,75.5,30.01,SW,219,6.0,0.0,79,0.00,,SKC,0.00,VWS V14.01,2013-08-08 20:36:00,
2013-08-08 16:41:00,82.9,74.6,30.01,SSW,210,1.0,0.0,76,0.00,,SKC,0.00,VWS V14.01,2013-08-08 20:41:00,
2013-08-08 16:46:00,82.9,74.9,30.01,SW,222,2.0,0.0,77,0.00,,SKC,0.00,VWS V14.01,2013-08-08 20:46:00,
2013-08-08 16:51:00,82.9,74.9,30.01,South,180,8.0,0.0,77,0.00,,SKC,0.00,VWS V14.01,2013-08-08 20:51:00,
2013-08-08 16:56:00,82.9,75.3,30.01,SSW,203,1.0,0.0,78,0.00,,SKC,0.00,VWS V14.01,2013-08-08 20:56:00,
2013-08-08 17:01:00,83.4,75.4,30.00,SW,217,3.0,0.0,77,0.00,,SKC,0.00,VWS V14.01,2013-08-08 21:01:00,
2013-08-08 17:07:00,83.9,74.7,30.00,South,191,5.0,0.0,74,0.00,,SKC,0.00,VWS V14.01,2013-08-08 21:07:00,
2013-08-08 17:13:00,83.8,74.6,30.00,WSW,256,3.0,0.0,74,0.00,,SKC,0.00,VWS V14.01,2013-08-08 21:13:00,
2013-08-08 17:20:00,83.6,74.4,30.00,SW,219,4.0,0.0,74,0.00,,SKC,0.00,VWS V14.01,2013-08-08 21:20:00,
2013-08-08 17:26:00,83.3,74.9,30.01,SW,235,1.0,0.0,76,0.00,,SKC,0.00,VWS V14.01,2013-08-08 21:26:00,
2013-08-08 17:33:00,82.9,74.9,30.01,SW,225,2.0,0.0,77,0.00,,SKC,0.00,VWS V14.01,2013-08-08 21:33:00,
2013-08-08 17:39:00,82.4,74.9,30.01,South,191,0.0,0.0,78,0.00,,SKC,0.00,VWS V14.01,2013-08-08 21:39:00,
2013-08-08 17:45:00,81.9,74.8,30.01,South,191,5.0,0.0,79,0.00,,SKC,0.00,VWS V14.01,2013-08-08 21:45:00,
2013-08-08 17:51:00,81.4,74.6,30.01,SSW,205,0.0,0.0,80,0.00,,SKC,0.00,VWS V14.01,2013-08-08 21:51:00,
2013-08-08 17:57:00,81.2,74.8,30.01,SW,217,2.0,0.0,81,0.00,,SKC,0.00,VWS V14.01,2013-08-08 21:57:00,
2013-08-08 18:06:00,80.9,74.9,30.01,SSE,161,2.0,0.0,82,0.00,,SKC,0.00,VWS V14.01,2013-08-08 22:06:00,
2013-08-08 18:11:00,80.8,74.8,30.01,SSW,212,2.0,0.0,82,0.00,,SKC,0.00,VWS V14.01,2013-08-08 22:11:00,
2013-08-08 18:16:00,80.6,74.6,30.01,SSW,200,3.0,0.0,82,0.00,,SKC,0.00,VWS V14.01,2013-08-08 22:16:00,
2013-08-08 18:22:00,80.4,74.8,30.02,SW,226,4.0,0.0,83,0.00,,SKC,0.00,VWS V14.01,2013-08-08 22:22:00,
2013-08-08 18:31:00,80.2,74.6,30.02,SW,217,0.0,0.0,83,0.00,,SKC,0.00,VWS V14.01,2013-08-08 22:31:00,
2013-08-08 18:36:00,80.1,74.5,30.02,SSW,207,0.0,0.0,83,0.00,,SKC,0.00,VWS V14.01,2013-08-08 22:36:00,
2013-08-08 18:41:00,80.0,74.4,30.02,WSW,243,2.0,0.0,83,0.00,,SKC,0.00,VWS V14.01,2013-08-08 22:41:00,
2013-08-08 18:46:00,79.9,74.3,30.02,WSW,258,1.0,0.0,83,0.00,,SKC,0.00,VWS V14.01,2013-08-08 22:46:00,
2013-08-08 18:52:00,79.8,74.2,30.02,SSW,208,1.0,0.0,83,0.00,,SKC,0.00,VWS V14.01,2013-08-08 22:52:00,
2013-08-08 18:58:00,79.7,74.1,30.02,SW,217,2.0,0.0,83,0.00,,SKC,0.00,VWS V14.01,2013-08-08 22:58:00,
2013-08-08 19:04:00,79.6,74.3,30.02,SW,224,1.0,0.0,84,0.00,,SKC,0.00,VWS V14.01,2013-08-08 23:04:00,
2013-08-08 19:11:00,79.4,74.2,30.02,SSW,200,0.0,0.0,84,0.00,,SKC,0.00,VWS V14.01,2013-08-08 23:11:00,
2013-08-08 19:16:00,79.3,74.4,30.02,SSW,210,0.0,0.0,85,0.00,,SKC,0.00,VWS V14.01,2013-08-08 23:16:00,
2013-08-08 19:21:00,79.1,74.2,30.02,SSW,207,0.0,0.0,85,0.00,,SKC,0.00,VWS V14.01,2013-08-08 23:21:00,
2013-08-08 19:26:00,78.9,74.4,30.02,SSW,212,0.0,0.0,86,0.00,,SKC,0.00,VWS V14.01,2013-08-08 23:26:00,
2013-08-08 19:31:00,78.7,74.2,30.02,WSW,242,1.0,0.0,86,0.00,,SKC,0.00,VWS V14.01,2013-08-08 23:31:00,
2013-08-08 19:37:00,78.6,74.4,30.02,WSW,246,0.0,0.0,87,0.00,,SKC,0.00,VWS V14.01,2013-08-08 23:37:00,
2013-08-08 19:44:00,78.4,74.6,30.02,SW,221,0.0,0.0,88,0.00,,SKC,0.00,VWS V14.01,2013-08-08 23:44:00,
2013-08-08 19:51:00,78.2,74.4,30.02,SSW,203,0.0,0.0,88,0.00,,SKC,0.00,VWS V14.01,2013-08-08 23:51:00,
2013-08-08 19:56:00,78.1,74.3,30.03,SSW,193,0.0,0.0,88,0.00,,SKC,0.00,VWS V14.01,2013-08-08 23:56:00,
2013-08-08 20:01:00,78.1,74.3,30.03,SW,224,1.0,0.0,88,0.00,,SKC,0.00,VWS V14.01,2013-08-09 00:01:00,
2013-08-08 20:06:00,78.0,74.5,30.03,SSW,207,1.0,0.0,89,0.00,,SKC,0.00,VWS V14.01,2013-08-09 00:06:00,
2013-08-08 20:13:00,77.9,74.4,30.02,SSW,207,0.0,0.0,89,0.00,,SKC,0.00,VWS V14.01,2013-08-09 00:13:00,
2013-08-08 20:19:00,77.7,74.2,30.03,SSW,207,0.0,0.0,89,0.00,,SKC,0.00,VWS V14.01,2013-08-09 00:19:00,
2013-08-08 20:25:00,77.6,74.1,30.03,SW,225,0.0,0.0,89,0.00,,SKC,0.00,VWS V14.01,2013-08-09 00:25:00,
2013-08-08 20:31:00,77.6,74.4,30.03,SSW,201,0.0,0.0,90,0.00,,SKC,0.00,VWS V14.01,2013-08-09 00:31:00,
2013-08-08 20:36:00,77.5,74.3,30.03,SSW,195,1.0,0.0,90,0.00,,SKC,0.00,VWS V14.01,2013-08-09 00:36:00,
2013-08-08 20:41:00,77.4,74.2,30.03,South,191,1.0,0.0,90,0.00,,SKC,0.00,VWS V14.01,2013-08-09 00:41:00,
2013-08-08 20:47:00,77.4,74.2,30.03,SW,222,0.0,0.0,90,0.00,,SKC,0.00,VWS V14.01,2013-08-09 00:47:00,
2013-08-08 20:53:00,77.3,74.1,30.02,SSW,193,0.0,0.0,90,0.00,,SKC,0.00,VWS V14.01,2013-08-09 00:53:00,
2013-08-08 20:59:00,77.2,74.0,30.02,SSW,194,0.0,0.0,90,0.00,,SKC,0.00,VWS V14.01,2013-08-09 00:59:00,
2013-08-08 21:06:00,77.0,74.2,30.02,SSW,194,0.0,0.0,91,0.00,,SKC,0.00,VWS V14.01,2013-08-09 01:06:00,
2013-08-08 21:11:00,76.9,74.1,30.02,SW,222,1.0,0.0,91,0.00,,SKC,0.00,VWS V14.01,2013-08-09 01:11:00,
2013-08-08 21:16:00,76.9,74.1,30.02,SSW,208,0.0,0.0,91,0.00,,SKC,0.00,VWS V14.01,2013-08-09 01:16:00,
2013-08-08 21:21:00,76.9,74.1,30.02,SW,224,1.0,0.0,91,0.00,,SKC,0.00,VWS V14.01,2013-08-09 01:21:00,
2013-08-08 21:26:00,76.8,74.0,30.02,SSE,151,0.0,0.0,91,0.00,,SKC,0.00,VWS V14.01,2013-08-09 01:26:00,
2013-08-08 21:31:00,76.7,73.9,30.02,SW,226,0.0,0.0,91,0.00,,SKC,0.00,VWS V14.01,2013-08-09 01:31:00,
2013-08-08 21:36:00,76.6,73.8,30.02,SW,215,0.0,0.0,91,0.00,,SKC,0.00,VWS V14.01,2013-08-09 01:36:00,
2013-08-08 21:41:00,76.6,73.8,30.03,SW,231,1.0,0.0,91,0.00,,SKC,0.00,VWS V14.01,2013-08-09 01:41:00,
2013-08-08 21:46:00,76.5,73.7,30.02,SW,225,0.0,0.0,91,0.00,,SKC,0.00,VWS V14.01,2013-08-09 01:46:00,
2013-08-08 21:52:00,76.4,73.9,30.03,SW,225,0.0,0.0,92,0.00,,SKC,0.00,VWS V14.01,2013-08-09 01:52:00,
2013-08-08 21:59:00,76.3,73.8,30.02,SW,222,0.0,0.0,92,0.00,,SKC,0.00,VWS V14.01,2013-08-09 01:59:00,
2013-08-08 22:05:00,76.3,73.8,30.02,SW,221,1.0,0.0,92,0.00,,SKC,0.00,VWS V14.01,2013-08-09 02:05:00,
2013-08-08 22:11:00,76.3,73.8,30.02,WSW,239,1.0,0.0,92,0.00,,SKC,0.00,VWS V14.01,2013-08-09 02:11:00,
2013-08-08 22:16:00,76.3,73.8,30.02,SW,236,1.0,0.0,92,0.00,,SKC,0.00,VWS V14.01,2013-08-09 02:16:00,
2013-08-08 22:21:00,76.2,73.7,30.02,SW,222,1.0,0.0,92,0.00,,SKC,0.00,VWS V14.01,2013-08-09 02:21:00,
2013-08-08 22:30:00,76.1,73.9,30.02,South,191,2.0,0.0,93,0.00,,SKC,0.00,VWS V14.01,2013-08-09 02:30:00,
2013-08-08 22:36:00,76.0,73.8,30.02,SSW,207,1.0,0.0,93,0.00,,SKC,0.00,VWS V14.01,2013-08-09 02:36:00,
2013-08-08 22:41:00,76.0,73.8,30.02,SSW,203,2.0,0.0,93,0.00,,SKC,0.00,VWS V14.01,2013-08-09 02:41:00,
2013-08-08 22:46:00,76.0,73.8,30.02,SW,224,2.0,0.0,93,0.00,,SKC,0.00,VWS V14.01,2013-08-09 02:46:00,
2013-08-08 22:51:00,75.9,73.7,30.02,SW,217,2.0,0.0,93,0.00,,SKC,0.00,VWS V14.01,2013-08-09 02:51:00,
2013-08-08 22:56:00,76.0,73.8,30.02,SSW,212,1.0,0.0,93,0.00,,SKC,0.00,VWS V14.01,2013-08-09 02:56:00,
2013-08-08 23:02:00,76.0,73.8,30.02,SSW,212,0.0,0.0,93,0.00,,SKC,0.00,VWS V14.01,2013-08-09 03:02:00,
2013-08-08 23:08:00,76.0,73.8,30.02,SW,225,1.0,0.0,93,0.00,,SKC,0.00,VWS V14.01,2013-08-09 03:08:00,
2013-08-08 23:14:00,76.0,74.2,30.02,SW,229,1.0,0.0,94,0.00,,SKC,0.00,VWS V14.01,2013-08-09 03:14:00,
2013-08-08 23:21:00,76.0,73.8,30.02,SSE,160,2.0,0.0,93,0.00,,SKC,0.00,VWS V14.01,2013-08-09 03:21:00,
2013-08-08 23:27:00,76.0,74.2,30.02,SSW,203,3.0,0.0,94,0.00,,SKC,0.00,VWS V14.01,2013-08-09 03:27:00,
2013-08-08 23:33:00,75.9,73.7,30.02,South,190,0.0,0.0,93,0.00,,SKC,0.00,VWS V14.01,2013-08-09 03:33:00,
2013-08-08 23:40:00,76.0,73.8,30.02,WSW,251,0.0,0.0,93,0.00,,SKC,0.00,VWS V14.01,2013-08-09 03:40:00,
2013-08-08 23:46:00,76.0,73.8,30.02,SSW,200,2.0,0.0,93,0.00,,SKC,0.00,VWS V14.01,2013-08-09 03:46:00,
2013-08-08 23:51:00,76.1,73.9,30.02,SSW,207,0.0,0.0,93,0.00,,SKC,0.00,VWS V14.01,2013-08-09 03:51:00,
2013-08-08 23:56:00,76.1,73.9,30.02,WSW,251,1.0,0.0,93,0.00,,SKC,0.00,VWS V14.01,2013-08-09 03:56:00,